Time;durP1;ratioP1;P1;durP2;ratioP2;P2;SDS_P1;SDS_P2;PMS_P1;PMS_P2;Temp;Humidity;BMP_temperature;BMP_pressure;BME280_temperature;BME280_humidity;BME280_pressure;Samples;Min_cycle;Max_cycle;Signal;HPM_P1;HPM_P2
2021/07/20 00:00:39;;;;;;;9.02;8.13;;;16.20;99.90;;;;;;2114418;28;20615;-68
2021/07/20 00:01:40;;;;;;;10.90;8.75;;;16.30;99.90;;;;;;2108991;28;20062;-68
2021/07/20 00:02:46;;;;;;;13.15;9.48;;;16.20;99.90;;;;;;2104312;28;20024;-68
2021/07/20 00:03:49;;;;;;;12.70;9.30;;;16.20;99.90;;;;;;2097246;28;20098;-68
2021/07/20 00:04:49;;;;;;;11.68;8.95;;;16.20;99.90;;;;;;2103162;28;20020;-68
2021/07/20 00:05:50;;;;;;;9.25;8.27;;;16.20;99.90;;;;;;2105701;28;20016;-68
2021/07/20 00:06:51;;;;;;;9.77;8.80;;;16.20;99.90;;;;;;2105916;28;20507;-68
2021/07/20 00:07:59;;;;;;;10.90;8.85;;;16.20;99.90;;;;;;2105808;28;20043;-68
2021/07/20 00:09:00;;;;;;;9.98;7.78;;;16.20;99.90;;;;;;2105855;28;20043;-68
2021/07/20 00:10:01;;;;;;;11.02;7.82;;;16.20;99.90;;;;;;2105637;28;20012;-68
2021/07/20 00:11:03;;;;;;;9.75;8.75;;;16.20;99.90;;;;;;2105912;28;20020;-68
2021/07/20 00:12:04;;;;;;;9.55;8.13;;;16.20;99.90;;;;;;2105649;28;20030;-68
2021/07/20 00:13:06;;;;;;;9.55;8.43;;;16.10;99.90;;;;;;2112311;28;20114;-68
2021/07/20 00:14:06;;;;;;;10.95;8.38;;;16.10;99.90;;;;;;2113953;28;20019;-68
2021/07/20 00:15:10;;;;;;;9.63;8.45;;;16.10;99.90;;;;;;2114456;28;20027;-68
2021/07/20 00:16:12;;;;;;;9.13;8.23;;;16.10;99.90;;;;;;2114024;28;20055;-68
2021/07/20 00:17:13;;;;;;;9.52;8.43;;;16.10;99.90;;;;;;2114024;28;20355;-68
2021/07/20 00:18:20;;;;;;;9.60;8.00;;;16.10;99.90;;;;;;2114153;28;20078;-68
2021/07/20 00:19:20;;;;;;;11.48;8.57;;;16.10;99.90;;;;;;2114460;28;20153;-68
2021/07/20 00:20:22;;;;;;;9.88;8.45;;;16.10;99.90;;;;;;2114169;28;20077;-68
2021/07/20 00:21:23;;;;;;;10.68;8.82;;;16.00;99.90;;;;;;2114048;28;20034;-68
2021/07/20 00:22:23;;;;;;;13.40;9.93;;;16.00;99.90;;;;;;2113991;28;20019;-68
2021/07/20 00:23:24;;;;;;;12.07;9.00;;;16.00;99.90;;;;;;2113922;28;20028;-68
2021/07/20 00:24:25;;;;;;;11.80;9.32;;;16.00;99.90;;;;;;2114120;28;20020;-68
2021/07/20 00:25:25;;;;;;;10.57;8.70;;;16.00;99.90;;;;;;2113975;28;20107;-68
2021/07/20 00:26:26;;;;;;;11.68;9.27;;;16.00;99.90;;;;;;2106840;28;20447;-68
2021/07/20 00:27:26;;;;;;;14.25;8.98;;;16.00;99.90;;;;;;2105608;28;20035;-68
2021/07/20 00:28:27;;;;;;;9.70;8.70;;;16.00;99.90;;;;;;2105678;28;20097;-68
2021/07/20 00:29:28;;;;;;;11.93;7.90;;;16.00;99.90;;;;;;2106064;28;20024;-68
2021/07/20 00:30:29;;;;;;;10.52;8.10;;;16.00;99.90;;;;;;2106876;28;20032;-68
2021/07/20 00:31:29;;;;;;;9.02;8.13;;;15.90;99.90;;;;;;2107427;28;20099;-68
2021/07/20 00:32:30;;;;;;;9.52;8.45;;;16.00;99.90;;;;;;2107182;28;20073;-68
2021/07/20 00:33:31;;;;;;;9.50;8.27;;;15.90;99.90;;;;;;2107345;28;20093;-68
2021/07/20 00:34:31;;;;;;;10.68;9.00;;;15.90;99.90;;;;;;2107539;28;20481;-68
2021/07/20 00:35:32;;;;;;;11.70;8.38;;;15.90;99.90;;;;;;2107513;28;20036;-68
2021/07/20 00:36:33;;;;;;;9.80;8.73;;;15.90;99.90;;;;;;2106672;28;20709;-68
2021/07/20 00:37:33;;;;;;;11.35;9.25;;;15.90;99.90;;;;;;2106982;28;20541;-68
2021/07/20 00:38:34;;;;;;;8.93;7.97;;;15.90;99.90;;;;;;2107426;28;20371;-68
2021/07/20 00:39:35;;;;;;;9.25;8.27;;;15.90;99.90;;;;;;2107692;28;20077;-68
2021/07/20 00:40:35;;;;;;;10.25;8.70;;;15.90;99.90;;;;;;2107141;28;20395;-68
2021/07/20 00:41:36;;;;;;;9.90;8.07;;;15.90;99.90;;;;;;2108359;28;20030;-68
2021/07/20 00:42:37;;;;;;;10.38;8.60;;;15.80;99.90;;;;;;2115473;28;20492;-68
2021/07/20 00:43:37;;;;;;;15.52;9.32;;;15.80;99.90;;;;;;2115939;28;20039;-68
2021/07/20 00:44:38;;;;;;;10.52;8.80;;;15.80;99.90;;;;;;2115576;28;20099;-68
2021/07/20 00:45:39;;;;;;;12.40;8.27;;;15.80;99.90;;;;;;2115881;28;20024;-68
2021/07/20 00:46:40;;;;;;;10.63;9.02;;;15.80;99.90;;;;;;2115525;28;20384;-68
2021/07/20 00:47:40;;;;;;;10.82;8.32;;;15.80;99.90;;;;;;2112605;28;20038;-68
2021/07/20 00:48:41;;;;;;;8.52;7.63;;;15.80;99.90;;;;;;2107390;28;20489;-68
2021/07/20 00:49:42;;;;;;;9.30;8.30;;;15.80;99.90;;;;;;2107459;28;20341;-68
2021/07/20 00:50:45;;;;;;;11.65;8.80;;;15.80;99.90;;;;;;2107471;28;20032;-68
2021/07/20 00:51:45;;;;;;;10.60;8.98;;;15.80;99.90;;;;;;2107043;28;20031;-68
2021/07/20 00:52:46;;;;;;;12.05;8.43;;;15.80;99.90;;;;;;2107013;28;20024;-68
2021/07/20 00:53:48;;;;;;;10.30;8.45;;;15.80;99.90;;;;;;2107234;28;20036;-68
2021/07/20 00:54:49;;;;;;;11.93;8.60;;;15.80;99.90;;;;;;2107164;28;20027;-68
2021/07/20 00:55:50;;;;;;;12.73;8.57;;;15.80;99.90;;;;;;2107015;28;20024;-68
2021/07/20 00:56:51;;;;;;;12.50;8.65;;;15.80;99.90;;;;;;2107355;28;20085;-68
2021/07/20 00:57:53;;;;;;;13.73;8.73;;;15.80;99.90;;;;;;2107071;28;20085;-68
2021/07/20 00:58:54;;;;;;;11.57;8.50;;;15.80;99.90;;;;;;2107495;28;20387;-68
2021/07/20 00:59:56;;;;;;;11.32;8.30;;;15.80;99.90;;;;;;2106449;28;20536;-68
2021/07/20 01:00:57;;;;;;;10.88;9.32;;;15.80;99.90;;;;;;2107442;28;20024;-69
2021/07/20 01:01:58;;;;;;;8.82;7.93;;;15.80;99.90;;;;;;2106629;28;20023;-69
2021/07/20 01:02:59;;;;;;;10.10;8.60;;;15.80;99.90;;;;;;2102940;28;20464;-69
2021/07/20 01:04:00;;;;;;;10.55;8.55;;;15.80;99.90;;;;;;2098671;28;20372;-69
2021/07/20 01:05:01;;;;;;;11.68;8.48;;;15.80;99.90;;;;;;2106389;28;20047;-69
2021/07/20 01:06:03;;;;;;;10.32;7.97;;;15.80;99.90;;;;;;2106504;28;20016;-69
2021/07/20 01:07:05;;;;;;;10.85;8.63;;;15.80;99.90;;;;;;2106655;28;20027;-69
2021/07/20 01:08:06;;;;;;;11.93;9.48;;;15.80;99.90;;;;;;2107316;28;20023;-69
2021/07/20 01:09:06;;;;;;;11.07;8.32;;;15.80;99.90;;;;;;2108133;28;20020;-69
2021/07/20 01:10:08;;;;;;;10.38;8.98;;;15.70;99.90;;;;;;2115547;28;20410;-69
2021/07/20 01:11:09;;;;;;;9.63;8.27;;;15.70;99.90;;;;;;2115373;27;20121;-69
2021/07/20 01:12:11;;;;;;;10.05;8.30;;;15.80;99.90;;;;;;2115312;28;20476;-69
2021/07/20 01:13:13;;;;;;;10.35;8.55;;;15.70;99.90;;;;;;2115341;28;20023;-69
2021/07/20 01:14:15;;;;;;;11.00;8.85;;;15.80;99.90;;;;;;2115546;28;20021;-69
2021/07/20 01:15:17;;;;;;;10.95;8.57;;;15.70;99.90;;;;;;2115806;27;20031;-69
2021/07/20 01:16:19;;;;;;;11.98;9.20;;;15.70;99.90;;;;;;2115464;28;20106;-69
2021/07/20 01:17:22;;;;;;;9.95;8.68;;;15.70;99.90;;;;;;2115603;28;20027;-69
2021/07/20 01:18:24;;;;;;;9.40;8.23;;;15.70;99.90;;;;;;2115536;28;20035;-69
2021/07/20 01:19:34;;;;;;;12.32;9.05;;;15.70;99.90;;;;;;2114798;28;20027;-69
2021/07/20 01:20:34;;;;;;;11.32;9.02;;;15.70;99.90;;;;;;2114924;28;20149;-69
2021/07/20 01:21:37;;;;;;;9.75;8.75;;;15.70;99.90;;;;;;2115437;28;20081;-69
2021/07/20 01:22:40;;;;;;;14.63;9.10;;;15.70;99.90;;;;;;2115063;28;20019;-69
2021/07/20 01:23:44;;;;;;;13.23;9.27;;;15.70;99.90;;;;;;2114813;28;20076;-69
2021/07/20 01:24:45;;;;;;;12.82;9.50;;;15.70;99.90;;;;;;2106912;28;20443;-69
2021/07/20 01:25:46;;;;;;;13.45;9.32;;;15.70;99.90;;;;;;2106795;28;20024;-69
2021/07/20 01:26:47;;;;;;;11.00;9.25;;;15.70;99.90;;;;;;2106795;28;20299;-69
2021/07/20 01:27:52;;;;;;;11.07;9.15;;;15.60;99.90;;;;;;2107128;28;20099;-69
2021/07/20 01:28:53;;;;;;;10.77;9.13;;;15.70;99.90;;;;;;2107102;28;20024;-69
2021/07/20 01:29:56;;;;;;;13.75;9.60;;;15.70;99.90;;;;;;2107189;28;20016;-69
2021/07/20 01:31:02;;;;;;;9.63;8.30;;;15.70;99.90;;;;;;2106935;28;20023;-69
2021/07/20 01:32:04;;;;;;;12.10;9.32;;;15.70;99.90;;;;;;2106578;28;20039;-69
2021/07/20 01:33:06;;;;;;;12.55;9.05;;;15.60;99.90;;;;;;2106474;28;20032;-69
2021/07/20 01:34:10;;;;;;;12.63;9.73;;;15.60;99.90;;;;;;2107092;28;20228;-69
2021/07/20 01:35:13;;;;;;;11.00;9.35;;;15.60;99.90;;;;;;2106431;28;20031;-69
2021/07/20 01:36:16;;;;;;;11.23;9.65;;;15.60;99.90;;;;;;2107097;28;20081;-69
2021/07/20 01:37:18;;;;;;;11.35;9.88;;;15.60;99.90;;;;;;2106913;28;20085;-69
2021/07/20 01:38:20;;;;;;;14.02;10.35;;;15.60;99.90;;;;;;2107540;28;20028;-69
2021/07/20 01:39:22;;;;;;;13.43;11.02;;;15.60;99.90;;;;;;2113673;28;20031;-69
2021/07/20 01:40:24;;;;;;;12.00;9.52;;;15.60;99.90;;;;;;2111789;28;20475;-69
2021/07/20 01:41:25;;;;;;;13.18;9.98;;;15.60;99.90;;;;;;2114916;28;20414;-69
2021/07/20 01:42:27;;;;;;;11.32;9.13;;;15.60;99.90;;;;;;2115373;28;20463;-69
2021/07/20 01:43:29;;;;;;;9.70;8.32;;;15.60;99.90;;;;;;2114973;28;20063;-69
2021/07/20 01:44:29;;;;;;;10.43;9.25;;;15.60;99.90;;;;;;2115399;28;20471;-69
2021/07/20 01:45:32;;;;;;;9.93;8.93;;;15.60;99.90;;;;;;2115338;28;20387;-69
2021/07/20 01:46:34;;;;;;;10.93;9.20;;;15.60;99.90;;;;;;2114668;28;20360;-69
2021/07/20 01:47:37;;;;;;;11.65;10.38;;;15.60;99.90;;;;;;2112124;28;20019;-69
2021/07/20 01:48:42;;;;;;;10.70;8.80;;;15.60;99.90;;;;;;2106800;28;20449;-69
2021/07/20 01:49:44;;;;;;;10.80;8.63;;;15.60;99.90;;;;;;2106987;28;20385;-69
2021/07/20 01:50:45;;;;;;;13.50;9.82;;;15.60;99.90;;;;;;2106952;28;20023;-69
2021/07/20 01:51:46;;;;;;;10.82;9.73;;;15.60;99.90;;;;;;2106440;28;20024;-69
2021/07/20 01:52:47;;;;;;;12.20;9.85;;;15.60;99.90;;;;;;2106798;28;20600;-69
2021/07/20 01:53:49;;;;;;;11.68;9.23;;;15.60;99.90;;;;;;2106847;28;20034;-69
2021/07/20 01:54:50;;;;;;;11.93;9.02;;;15.60;99.90;;;;;;2106683;28;20020;-69
2021/07/20 01:55:51;;;;;;;10.68;9.35;;;15.60;99.90;;;;;;2106540;28;20028;-69
2021/07/20 01:56:52;;;;;;;10.93;9.27;;;15.60;99.90;;;;;;2108512;28;20030;-69
2021/07/20 01:57:54;;;;;;;13.20;8.98;;;15.60;99.90;;;;;;2106789;28;20031;-69
2021/07/20 01:58:55;;;;;;;10.10;8.25;;;15.60;99.90;;;;;;2111977;28;20059;-69
2021/07/20 01:59:56;;;;;;;13.40;10.38;;;15.60;99.90;;;;;;2106997;28;20027;-69
2021/07/20 02:00:58;;;;;;;10.65;8.93;;;15.60;99.90;;;;;;2106409;28;20035;-69
2021/07/20 02:03:18;;;;;;;12.75;9.60;;;15.60;99.90;;;;;;2102358;28;20016;-69
2021/07/20 02:04:49;;;;;;;11.43;9.27;;;15.60;99.90;;;;;;2099878;28;20016;-69
2021/07/20 02:08:29;;;;;;;9.43;8.25;;;15.50;99.90;;;;;;2098678;28;20029;-69
2021/07/20 02:09:30;;;;;;;10.18;8.82;;;15.50;99.90;;;;;;2101897;28;20021;-69
2021/07/20 02:10:32;;;;;;;14.27;10.63;;;15.50;99.90;;;;;;2106559;28;20024;-69
2021/07/20 02:11:36;;;;;;;12.30;9.75;;;15.50;99.90;;;;;;2104883;28;20025;-69
2021/07/20 02:12:40;;;;;;;12.07;9.82;;;15.50;99.90;;;;;;2105157;28;20016;-69
2021/07/20 02:13:46;;;;;;;10.70;9.60;;;15.50;99.90;;;;;;2108399;28;20019;-69
2021/07/20 02:14:49;;;;;;;12.20;9.90;;;15.50;99.90;;;;;;2111886;28;20019;-69
2021/07/20 02:15:51;;;;;;;11.73;8.88;;;15.50;99.90;;;;;;2112519;28;20461;-69
2021/07/20 02:16:54;;;;;;;14.27;10.23;;;15.50;99.90;;;;;;2106830;28;20123;-69
2021/07/20 02:17:56;;;;;;;13.02;9.77;;;15.50;99.90;;;;;;2106258;28;20101;-69
2021/07/20 02:19:08;;;;;;;13.45;10.85;;;15.50;99.90;;;;;;2106802;28;20459;-69
2021/07/20 02:20:15;;;;;;;13.73;10.20;;;15.50;99.90;;;;;;2106731;28;20032;-69
2021/07/20 02:21:18;;;;;;;14.13;9.82;;;15.50;99.90;;;;;;2106737;28;20479;-69
2021/07/20 02:22:21;;;;;;;11.80;10.35;;;15.50;99.90;;;;;;2106050;28;20150;-69
2021/07/20 02:23:23;;;;;;;11.05;9.70;;;15.40;99.90;;;;;;2106331;28;20086;-69
2021/07/20 02:24:27;;;;;;;13.85;10.25;;;15.50;99.90;;;;;;2106033;28;20039;-69
2021/07/20 02:25:30;;;;;;;13.85;9.85;;;15.40;99.90;;;;;;2095801;28;20025;-69
2021/07/20 02:26:31;;;;;;;15.57;11.20;;;15.40;99.90;;;;;;2114248;28;20031;-69
2021/07/20 02:27:32;;;;;;;15.00;10.43;;;15.40;99.90;;;;;;2114809;28;20031;-69
2021/07/20 02:28:35;;;;;;;13.45;10.82;;;15.40;99.90;;;;;;2113158;28;20024;-69
2021/07/20 02:29:38;;;;;;;12.32;10.48;;;15.40;99.90;;;;;;2106853;28;20062;-69
2021/07/20 02:30:40;;;;;;;11.48;9.90;;;15.40;99.90;;;;;;2106543;28;20430;-69
2021/07/20 02:31:43;;;;;;;11.07;9.73;;;15.40;99.90;;;;;;2106380;28;20467;-69
2021/07/20 02:32:45;;;;;;;12.85;10.68;;;15.40;99.90;;;;;;2106294;28;20032;-69
2021/07/20 02:33:47;;;;;;;13.43;11.10;;;15.40;99.90;;;;;;2106595;28;20070;-69
2021/07/20 02:34:49;;;;;;;11.63;10.45;;;15.40;99.90;;;;;;2106513;28;20024;-69
2021/07/20 02:35:50;;;;;;;11.75;10.52;;;15.30;99.90;;;;;;2106659;28;20016;-69
2021/07/20 02:36:54;;;;;;;14.75;11.02;;;15.40;99.90;;;;;;2105666;28;20356;-69
2021/07/20 02:37:56;;;;;;;12.02;10.82;;;15.40;99.90;;;;;;2105768;28;20035;-69
2021/07/20 02:38:57;;;;;;;14.45;10.68;;;15.40;99.90;;;;;;2106191;28;20565;-69
2021/07/20 02:40:00;;;;;;;16.10;11.60;;;15.40;99.90;;;;;;2106340;28;20024;-69
2021/07/20 02:41:01;;;;;;;13.07;10.10;;;15.30;99.90;;;;;;2106549;28;20016;-69
2021/07/20 02:42:04;;;;;;;13.02;10.75;;;15.30;99.90;;;;;;2106261;28;20501;-69
2021/07/20 02:43:05;;;;;;;12.95;9.95;;;15.30;99.90;;;;;;2105962;28;20523;-69
2021/07/20 02:44:07;;;;;;;13.82;10.88;;;15.30;99.90;;;;;;2106639;28;20356;-69
2021/07/20 02:45:09;;;;;;;13.35;10.23;;;15.30;99.90;;;;;;2106547;28;20041;-69
2021/07/20 02:46:11;;;;;;;13.02;10.13;;;15.30;99.90;;;;;;2106494;28;20416;-69
2021/07/20 02:47:12;;;;;;;15.40;10.63;;;15.30;99.90;;;;;;2106034;28;20020;-69
2021/07/20 02:48:14;;;;;;;11.68;9.98;;;15.30;99.90;;;;;;2106177;28;20020;-69
2021/07/20 02:49:16;;;;;;;11.32;9.82;;;15.30;99.90;;;;;;2105718;28;20059;-69
2021/07/20 02:50:17;;;;;;;14.18;10.95;;;15.30;99.90;;;;;;2105904;28;20446;-69
2021/07/20 02:51:19;;;;;;;12.63;10.05;;;15.30;99.90;;;;;;2106389;28;20059;-69
2021/07/20 02:52:20;;;;;;;10.95;9.30;;;15.20;99.90;;;;;;2105783;28;20634;-69
2021/07/20 02:53:22;;;;;;;11.52;9.77;;;15.30;99.90;;;;;;2105757;28;20035;-69
2021/07/20 02:54:25;;;;;;;14.57;10.88;;;15.20;99.90;;;;;;2106500;28;20028;-69
2021/07/20 02:55:28;;;;;;;13.45;10.45;;;15.20;99.90;;;;;;2097963;28;20028;-69
2021/07/20 02:56:30;;;;;;;12.63;10.10;;;15.20;99.90;;;;;;2105353;28;20020;-69
2021/07/20 02:57:32;;;;;;;13.07;10.27;;;15.20;99.90;;;;;;2106343;28;20028;-69
2021/07/20 02:58:35;;;;;;;12.07;10.13;;;15.20;99.90;;;;;;2106452;28;20032;-69
2021/07/20 02:59:38;;;;;;;11.05;9.63;;;15.20;99.90;;;;;;2106262;28;20444;-69
2021/07/20 03:00:39;;;;;;;12.43;10.35;;;15.20;99.90;;;;;;2106584;28;20126;-69
2021/07/20 03:01:41;;;;;;;12.82;9.82;;;15.20;99.90;;;;;;2105888;28;20042;-69
2021/07/20 03:02:45;;;;;;;14.25;10.60;;;15.20;99.90;;;;;;2105019;28;20024;-69
2021/07/20 03:03:46;;;;;;;14.07;10.18;;;15.20;99.90;;;;;;2097791;28;20104;-69
2021/07/20 03:04:47;;;;;;;12.63;10.95;;;15.20;99.90;;;;;;2103099;28;20024;-69
2021/07/20 03:05:48;;;;;;;12.80;11.02;;;15.10;99.90;;;;;;2106387;28;20028;-69
2021/07/20 03:06:53;;;;;;;13.98;10.40;;;15.10;99.90;;;;;;2106501;28;20108;-69
2021/07/20 03:07:56;;;;;;;14.32;11.15;;;15.10;99.90;;;;;;2106197;28;20032;-69
2021/07/20 03:08:59;;;;;;;12.70;10.05;;;15.10;99.90;;;;;;2105718;28;20111;-69
2021/07/20 03:10:00;;;;;;;13.70;11.48;;;15.10;99.90;;;;;;2097224;28;20016;-69
2021/07/20 03:11:04;;;;;;;13.65;11.55;;;15.10;99.90;;;;;;2101280;28;20028;-69
2021/07/20 03:12:10;;;;;;;14.13;10.77;;;15.10;99.90;;;;;;2105807;28;20024;-69
2021/07/20 03:13:13;;;;;;;13.65;10.75;;;15.10;99.90;;;;;;2105987;28;20031;-69
2021/07/20 03:14:18;;;;;;;15.75;11.82;;;15.10;99.90;;;;;;2106173;28;20103;-69
2021/07/20 03:15:19;;;;;;;14.48;11.23;;;15.10;99.90;;;;;;2106167;28;20024;-69
2021/07/20 03:16:21;;;;;;;15.52;11.65;;;15.00;99.90;;;;;;2106106;28;20478;-69
2021/07/20 03:17:24;;;;;;;15.80;11.85;;;15.10;99.90;;;;;;2106183;28;20085;-69
2021/07/20 03:18:30;;;;;;;15.15;11.52;;;15.10;99.90;;;;;;2105971;28;20024;-69
2021/07/20 03:19:32;;;;;;;16.58;11.10;;;15.10;99.90;;;;;;2106292;28;20385;-69
2021/07/20 03:20:34;;;;;;;14.85;11.40;;;15.00;99.90;;;;;;2105902;28;20157;-69
2021/07/20 03:21:37;;;;;;;15.75;11.75;;;15.10;99.90;;;;;;2106027;28;20383;-69
2021/07/20 03:22:40;;;;;;;12.18;10.65;;;15.10;99.90;;;;;;2110886;28;20647;-69
2021/07/20 03:23:42;;;;;;;13.95;11.13;;;15.10;99.90;;;;;;2114549;28;20478;-69
2021/07/20 03:24:46;;;;;;;14.40;11.52;;;15.10;99.90;;;;;;2114311;28;20101;-69
2021/07/20 03:25:48;;;;;;;14.77;10.95;;;15.10;99.90;;;;;;2114645;28;20024;-69
2021/07/20 03:26:51;;;;;;;16.73;11.85;;;15.10;99.90;;;;;;2114608;28;20486;-69
2021/07/20 03:27:53;;;;;;;15.80;11.95;;;15.10;99.90;;;;;;2114707;28;20016;-69
2021/07/20 03:28:55;;;;;;;14.07;11.27;;;15.10;99.90;;;;;;2114248;28;20016;-69
2021/07/20 03:29:56;;;;;;;12.45;10.38;;;15.10;99.90;;;;;;2114708;28;20031;-69
2021/07/20 03:30:58;;;;;;;16.27;11.05;;;15.10;99.90;;;;;;2114505;28;20012;-69
2021/07/20 03:32:00;;;;;;;20.10;11.90;;;15.10;99.90;;;;;;2114411;28;20073;-69
2021/07/20 03:33:02;;;;;;;14.43;11.02;;;15.10;99.90;;;;;;2113830;28;20031;-69
2021/07/20 03:34:04;;;;;;;12.40;10.52;;;15.10;99.90;;;;;;2114588;28;20031;-69
2021/07/20 03:35:06;;;;;;;13.02;11.00;;;15.10;99.90;;;;;;2114507;28;20501;-69
2021/07/20 03:36:06;;;;;;;18.00;11.50;;;15.10;99.90;;;;;;2113063;28;20031;-69
2021/07/20 03:37:08;;;;;;;16.38;12.13;;;15.10;99.90;;;;;;2110561;28;20118;-69
2021/07/20 03:38:09;;;;;;;15.52;12.23;;;15.10;99.90;;;;;;2114577;27;20023;-69
2021/07/20 03:39:10;;;;;;;14.48;11.05;;;15.10;99.90;;;;;;2114289;28;20494;-69
2021/07/20 03:40:12;;;;;;;16.83;12.75;;;15.10;99.90;;;;;;2114511;28;20363;-69
2021/07/20 03:41:14;;;;;;;15.20;12.18;;;15.10;99.90;;;;;;2114308;28;20809;-69
2021/07/20 03:42:15;;;;;;;21.58;13.18;;;15.10;99.90;;;;;;2114414;28;20112;-69
2021/07/20 03:43:18;;;;;;;14.93;12.25;;;15.10;99.90;;;;;;2113908;28;20024;-69
2021/07/20 03:44:19;;;;;;;18.73;13.20;;;15.10;99.90;;;;;;2114217;28;20023;-69
2021/07/20 03:45:21;;;;;;;18.05;12.82;;;15.00;99.90;;;;;;2114287;28;20084;-69
2021/07/20 03:46:22;;;;;;;15.25;12.27;;;15.10;99.90;;;;;;2114620;28;20020;-69
2021/07/20 03:47:23;;;;;;;12.88;11.48;;;15.10;99.90;;;;;;2113632;28;20491;-69
2021/07/20 03:48:24;;;;;;;15.82;11.93;;;15.10;99.90;;;;;;2106184;28;20020;-69
2021/07/20 03:49:27;;;;;;;15.93;11.57;;;15.10;99.90;;;;;;2105911;28;20020;-69
2021/07/20 03:50:27;;;;;;;15.07;11.80;;;15.10;99.90;;;;;;2105832;28;20450;-69
2021/07/20 03:51:29;;;;;;;15.73;11.32;;;15.00;99.90;;;;;;2107317;28;20464;-69
2021/07/20 03:52:32;;;;;;;14.35;10.80;;;15.10;99.90;;;;;;2113646;28;20069;-69
2021/07/20 03:53:34;;;;;;;13.07;11.00;;;15.10;99.90;;;;;;2113783;28;20484;-69
2021/07/20 03:54:35;;;;;;;16.17;12.55;;;15.10;99.90;;;;;;2114532;28;20157;-69
2021/07/20 03:55:39;;;;;;;16.63;11.90;;;15.00;99.90;;;;;;2114109;28;20023;-69
2021/07/20 03:56:41;;;;;;;12.73;10.75;;;15.00;99.90;;;;;;2105511;28;20024;-69
2021/07/20 03:57:42;;;;;;;14.73;11.25;;;15.00;99.90;;;;;;2107798;28;20424;-69
2021/07/20 03:58:44;;;;;;;15.57;11.68;;;15.00;99.90;;;;;;2110785;28;20456;-69
2021/07/20 03:59:45;;;;;;;15.98;11.52;;;15.00;99.90;;;;;;2109284;28;20445;-69
2021/07/20 04:00:49;;;;;;;15.73;11.82;;;15.00;99.90;;;;;;2106229;28;20028;-69
2021/07/20 04:01:52;;;;;;;15.07;11.57;;;15.00;99.90;;;;;;2105097;28;20034;-69
2021/07/20 04:03:20;;;;;;;16.15;11.57;;;15.00;99.90;;;;;;2102704;28;20020;-69
2021/07/20 04:04:20;;;;;;;13.27;10.70;;;15.00;99.90;;;;;;2098674;28;20104;-69
2021/07/20 04:05:22;;;;;;;14.18;10.70;;;15.00;99.90;;;;;;2101741;28;20028;-69
2021/07/20 04:06:25;;;;;;;15.48;11.27;;;15.00;99.90;;;;;;2103807;28;20525;-69
2021/07/20 04:07:25;;;;;;;13.70;11.07;;;15.00;99.90;;;;;;2112272;28;20028;-69
2021/07/20 04:08:27;;;;;;;16.27;11.30;;;15.00;99.90;;;;;;2108218;28;20107;-69
2021/07/20 04:09:28;;;;;;;13.30;11.23;;;15.00;99.90;;;;;;2109593;28;20028;-69
2021/07/20 04:10:29;;;;;;;14.23;11.73;;;15.00;99.90;;;;;;2105336;28;20032;-69
2021/07/20 04:11:31;;;;;;;13.77;11.32;;;15.00;99.90;;;;;;2105446;28;20039;-69
2021/07/20 04:12:34;;;;;;;14.23;11.75;;;15.00;99.90;;;;;;2105979;28;20031;-69
2021/07/20 04:13:36;;;;;;;14.25;11.70;;;15.00;99.90;;;;;;2105988;28;20107;-69
2021/07/20 04:14:37;;;;;;;14.25;11.45;;;15.00;99.90;;;;;;2105750;28;20032;-69
2021/07/20 04:15:48;;;;;;;16.45;11.85;;;15.00;99.90;;;;;;2105804;28;20030;-69
2021/07/20 04:16:50;;;;;;;14.55;11.13;;;15.00;99.90;;;;;;2105878;28;20028;-69
2021/07/20 04:17:50;;;;;;;13.80;10.80;;;15.00;99.90;;;;;;2105976;28;20073;-69
2021/07/20 04:18:51;;;;;;;13.77;11.52;;;15.00;99.90;;;;;;2105240;28;20104;-69
2021/07/20 04:19:52;;;;;;;13.90;10.82;;;15.00;99.90;;;;;;2105808;28;20051;-69
2021/07/20 04:20:53;;;;;;;18.05;11.25;;;15.10;99.90;;;;;;2105770;28;20016;-69
2021/07/20 04:21:53;;;;;;;19.45;11.93;;;15.00;99.90;;;;;;2105701;28;20107;-69
2021/07/20 04:22:54;;;;;;;14.57;11.35;;;15.10;99.90;;;;;;2105118;28;20016;-69
2021/07/20 04:23:55;;;;;;;13.25;11.10;;;15.10;99.90;;;;;;2105945;28;20027;-69
2021/07/20 04:24:56;;;;;;;15.57;11.48;;;15.10;99.90;;;;;;2105878;28;20522;-69
2021/07/20 04:25:58;;;;;;;17.33;13.52;;;15.10;99.90;;;;;;2106092;28;20020;-69
2021/07/20 04:27:01;;;;;;;16.42;12.60;;;15.10;99.90;;;;;;2105038;28;20479;-69
2021/07/20 04:28:02;;;;;;;14.98;11.25;;;15.10;99.90;;;;;;2101703;28;20074;-69
2021/07/20 04:29:03;;;;;;;12.75;11.23;;;15.10;99.90;;;;;;2101746;28;20091;-69
2021/07/20 04:30:07;;;;;;;17.40;12.05;;;15.10;99.90;;;;;;2103452;28;20032;-69
2021/07/20 04:31:09;;;;;;;11.80;10.60;;;15.10;99.90;;;;;;2105023;28;20043;-69
2021/07/20 04:32:11;;;;;;;15.93;12.35;;;15.10;99.90;;;;;;2105182;28;20439;-69
2021/07/20 04:33:14;;;;;;;14.63;11.50;;;15.10;99.90;;;;;;2104964;28;20020;-69
2021/07/20 04:34:16;;;;;;;14.60;11.23;;;15.20;99.90;;;;;;2105335;28;20028;-69
2021/07/20 04:35:17;;;;;;;13.68;11.02;;;15.20;99.90;;;;;;2106007;28;20032;-69
2021/07/20 04:36:22;;;;;;;12.43;11.05;;;15.20;99.90;;;;;;2104273;28;20028;-69
2021/07/20 04:37:24;;;;;;;13.00;11.18;;;15.30;99.90;;;;;;2104016;28;20031;-69
2021/07/20 04:38:29;;;;;;;15.07;11.57;;;15.30;99.90;;;;;;2100637;28;20036;-69
2021/07/20 04:39:33;;;;;;;16.33;11.45;;;15.40;99.90;;;;;;2103806;28;21287;-69
2021/07/20 04:40:34;;;;;;;16.60;13.32;;;15.40;99.90;;;;;;2105560;28;20119;-69
2021/07/20 04:41:37;;;;;;;15.65;12.30;;;15.50;99.90;;;;;;2105057;28;20035;-69
2021/07/20 04:42:39;;;;;;;13.40;11.60;;;15.50;99.90;;;;;;2106028;28;20102;-69
2021/07/20 04:43:43;;;;;;;14.10;10.68;;;15.40;99.90;;;;;;2106115;28;20035;-69
2021/07/20 04:44:44;;;;;;;17.88;12.95;;;15.50;99.90;;;;;;2106124;28;20137;-69
2021/07/20 04:45:46;;;;;;;18.83;13.98;;;15.50;99.90;;;;;;2105803;28;20114;-69
2021/07/20 04:46:47;;;;;;;17.30;12.75;;;15.50;99.90;;;;;;2106211;28;20024;-69
2021/07/20 04:47:48;;;;;;;17.02;13.13;;;15.50;99.90;;;;;;2105658;28;20035;-69
2021/07/20 04:48:49;;;;;;;15.25;13.23;;;15.40;99.90;;;;;;2106332;28;20031;-69
2021/07/20 04:49:50;;;;;;;13.50;10.93;;;15.50;99.90;;;;;;2105910;28;20019;-69
2021/07/20 04:50:53;;;;;;;15.57;12.25;;;15.50;99.90;;;;;;2106320;28;20126;-69
2021/07/20 04:51:54;;;;;;;16.05;12.48;;;15.50;99.90;;;;;;2105626;28;20140;-69
2021/07/20 04:52:55;;;;;;;17.13;12.50;;;15.50;99.90;;;;;;2105729;28;20039;-69
2021/07/20 04:53:56;;;;;;;16.52;12.63;;;15.50;99.90;;;;;;2104070;28;20017;-69
2021/07/20 04:54:58;;;;;;;17.50;12.70;;;15.50;99.90;;;;;;2106002;28;20020;-69
2021/07/20 04:55:58;;;;;;;18.33;13.38;;;15.50;99.90;;;;;;2104209;28;20482;-69
2021/07/20 04:56:59;;;;;;;18.17;13.15;;;15.60;99.90;;;;;;2098418;28;20364;-69
2021/07/20 04:58:03;;;;;;;17.05;12.35;;;15.60;99.90;;;;;;2102817;28;20036;-69
2021/07/20 04:59:04;;;;;;;19.88;13.50;;;15.60;99.90;;;;;;2103988;28;20016;-69
2021/07/20 05:00:07;;;;;;;21.38;14.35;;;15.60;99.90;;;;;;2105196;28;20029;-69
2021/07/20 05:01:09;;;;;;;18.38;13.80;;;15.70;99.90;;;;;;2105376;28;20107;-69
2021/07/20 05:02:14;;;;;;;16.25;12.88;;;15.70;99.90;;;;;;2107731;28;20024;-69
2021/07/20 05:03:15;;;;;;;18.33;14.55;;;15.70;99.90;;;;;;2104223;28;20032;-69
2021/07/20 05:04:16;;;;;;;19.50;13.82;;;15.80;99.90;;;;;;2113641;28;20020;-69
2021/07/20 05:05:20;;;;;;;16.65;13.00;;;15.80;99.90;;;;;;2113249;28;20057;-69
2021/07/20 05:06:22;;;;;;;18.88;14.02;;;15.80;99.90;;;;;;2110618;28;20735;-69
2021/07/20 05:07:25;;;;;;;19.13;14.98;;;15.90;99.90;;;;;;2114145;28;20465;-69
2021/07/20 05:08:27;;;;;;;21.40;15.27;;;15.90;99.90;;;;;;2114139;28;20042;-69
2021/07/20 05:09:28;;;;;;;20.75;14.63;;;15.90;99.90;;;;;;2114126;28;20683;-69
2021/07/20 05:10:29;;;;;;;20.90;14.75;;;15.90;99.90;;;;;;2110195;28;20070;-69
2021/07/20 05:11:31;;;;;;;21.30;14.48;;;16.00;99.90;;;;;;2105331;28;20095;-69
2021/07/20 05:12:32;;;;;;;19.52;14.15;;;16.00;99.90;;;;;;2107748;28;20047;-69
2021/07/20 05:13:32;;;;;;;21.58;15.07;;;16.00;99.90;;;;;;2110688;28;20020;-69
2021/07/20 05:14:33;;;;;;;17.30;13.55;;;16.10;99.90;;;;;;2105494;28;20048;-69
2021/07/20 05:15:35;;;;;;;23.17;14.35;;;16.10;99.90;;;;;;2106344;28;20039;-69
2021/07/20 05:16:36;;;;;;;15.27;13.55;;;16.10;99.90;;;;;;2106952;28;20024;-69
2021/07/20 05:17:37;;;;;;;18.40;13.57;;;16.10;99.90;;;;;;2107974;28;20055;-69
2021/07/20 05:18:38;;;;;;;19.35;13.85;;;16.10;99.90;;;;;;2108248;28;20035;-69
2021/07/20 05:19:39;;;;;;;18.23;14.48;;;16.20;99.90;;;;;;2107809;28;20022;-69
2021/07/20 05:20:42;;;;;;;23.02;15.07;;;16.20;99.90;;;;;;2103062;28;20031;-69
2021/07/20 05:21:44;;;;;;;18.35;13.80;;;16.20;99.90;;;;;;2104865;28;20028;-69